createdAt,value
2022-10-08T00:01:16.105Z,28.20
2022-10-08T00:03:45.141Z,25.77
2022-10-08T00:06:16.375Z,30.92
2022-10-08T00:08:49.879Z,28.73
2022-10-08T00:11:21.323Z,34.22
2022-10-08T00:13:50.789Z,35.22
2022-10-08T00:16:30.146Z,33.47
2022-10-08T00:19:02.616Z,35.88
2022-10-08T00:21:34.848Z,35.25
2022-10-08T00:24:03.259Z,27.02
2022-10-08T00:26:32.201Z,25.20
2022-10-08T00:29:02.286Z,22.17
2022-10-08T00:31:35.137Z,17.83
2022-10-08T00:34:04.663Z,21.63
2022-10-08T00:36:34.162Z,22.00
2022-10-08T00:39:04.130Z,20.63
2022-10-08T00:41:35.030Z,22.97
2022-10-08T00:46:43.018Z,25.15
2022-10-08T00:49:12.754Z,23.48
2022-10-08T00:51:45.585Z,23.27
2022-10-08T00:54:13.784Z,20.27
2022-10-08T00:56:41.818Z,20.38
2022-10-08T00:59:11.018Z,18.25
2022-10-08T01:01:44.071Z,22.08
2022-10-08T01:04:13.973Z,24.88
2022-10-08T01:06:54.795Z,19.30
2022-10-08T01:09:39.134Z,25.50
2022-10-08T01:12:18.343Z,22.20
2022-10-08T01:14:54.493Z,22.98
2022-10-08T01:17:49.160Z,23.45
2022-10-08T01:20:16.068Z,25.80
2022-10-08T01:22:43.063Z,23.15
2022-10-08T01:25:34.974Z,23.33
2022-10-08T01:28:23.285Z,23.60
2022-10-08T01:31:05.564Z,25.08
2022-10-08T01:33:38.715Z,24.25
2022-10-08T01:36:08.435Z,21.90
2022-10-08T01:38:41.384Z,29.58
2022-10-08T01:41:12.073Z,25.88
2022-10-08T01:43:44.872Z,20.55
2022-10-08T01:46:22.839Z,18.48
2022-10-08T01:48:54.145Z,23.48
2022-10-08T01:51:27.619Z,22.98
2022-10-08T01:53:56.319Z,27.25
2022-10-08T01:56:27.386Z,18.67
2022-10-08T01:59:26.617Z,20.70
2022-10-08T02:02:08.342Z,24.10
2022-10-08T02:04:36.068Z,21.95
2022-10-08T02:07:17.486Z,26.67
2022-10-08T02:09:49.048Z,23.38
2022-10-08T02:12:16.454Z,21.05
2022-10-08T02:14:53.490Z,20.50
2022-10-08T02:17:36.200Z,21.92
2022-10-08T02:20:06.314Z,23.25
2022-10-08T02:22:38.031Z,26.00
2022-10-08T02:25:22.177Z,25.85
2022-10-08T02:27:56.146Z,25.83
2022-10-08T02:30:24.542Z,22.42
2022-10-08T02:33:05.847Z,24.83
2022-10-08T02:35:39.966Z,27.63
2022-10-08T02:38:11.994Z,26.20
2022-10-08T02:40:44.462Z,26.73
2022-10-08T02:43:21.111Z,24.70
2022-10-08T02:45:55.741Z,27.80
2022-10-08T02:48:33.766Z,22.40
2022-10-08T02:51:10.875Z,22.20
2022-10-08T02:53:40.801Z,23.25
2022-10-08T02:56:20.718Z,21.63
2022-10-08T02:58:48.267Z,26.20
2022-10-08T03:01:35.473Z,24.95
2022-10-08T03:04:22.609Z,24.73
2022-10-08T03:06:51.326Z,20.90
2022-10-08T03:09:19.511Z,23.80
2022-10-08T03:11:47.235Z,23.20
2022-10-08T03:14:17.136Z,24.23
2022-10-08T03:16:46.408Z,28.83
2022-10-08T03:19:16.015Z,28.15
2022-10-08T03:21:48.742Z,31.30
2022-10-08T03:24:16.496Z,25.63
2022-10-08T03:26:43.719Z,21.40
2022-10-08T03:29:11.143Z,27.35
2022-10-08T03:31:38.081Z,24.38
2022-10-08T03:34:05.417Z,25.58
2022-10-08T03:36:32.512Z,28.23
2022-10-08T03:38:59.635Z,24.02
2022-10-08T03:41:26.556Z,24.67
2022-10-08T03:43:53.482Z,23.55
2022-10-08T03:46:20.681Z,25.13
2022-10-08T03:48:49.554Z,25.13
2022-10-08T03:51:18.557Z,24.10
2022-10-08T03:53:46.537Z,27.73
2022-10-08T03:56:17.071Z,26.85
2022-10-08T03:58:44.289Z,20.25
2022-10-08T04:01:15.151Z,26.63
2022-10-08T04:03:42.640Z,32.92
2022-10-08T04:06:09.773Z,27.05
2022-10-08T04:08:37.406Z,26.90
2022-10-08T04:11:12.460Z,22.30
2022-10-08T04:13:39.857Z,24.52
2022-10-08T04:16:15.533Z,22.35
2022-10-08T04:18:43.134Z,23.77
2022-10-08T04:21:13.870Z,23.90
2022-10-08T04:26:10.206Z,23.48
2022-10-08T04:28:39.395Z,28.45
2022-10-08T04:31:17.060Z,27.40
2022-10-08T04:33:45.438Z,29.80
2022-10-08T04:36:14.856Z,24.42
2022-10-08T04:38:45.845Z,24.48
2022-10-08T04:41:15.795Z,27.67
2022-10-08T04:43:44.333Z,22.47
2022-10-08T04:46:14.711Z,28.63
2022-10-08T04:48:47.039Z,27.02
2022-10-08T04:51:14.731Z,22.58
2022-10-08T04:53:41.722Z,26.27
2022-10-08T04:56:17.651Z,29.00
2022-10-08T04:58:45.415Z,29.48
2022-10-08T05:01:14.895Z,24.40
2022-10-08T05:03:44.426Z,25.63
2022-10-08T05:06:12.414Z,28.73
2022-10-08T05:08:39.700Z,26.30
2022-10-08T05:11:07.157Z,31.85
2022-10-08T05:13:34.727Z,24.10
2022-10-08T05:16:13.118Z,22.52
2022-10-08T05:18:41.936Z,24.27
2022-10-08T05:21:11.889Z,24.13
2022-10-08T05:23:39.907Z,25.77
2022-10-08T05:26:13.063Z,23.27
2022-10-08T05:28:40.428Z,24.08
2022-10-08T05:31:07.489Z,24.15
2022-10-08T05:33:36.539Z,26.83
2022-10-08T05:36:05.561Z,26.58
2022-10-08T05:38:34.965Z,22.65
2022-10-08T05:41:12.785Z,23.58
2022-10-08T05:43:40.038Z,22.92
2022-10-08T05:46:07.819Z,21.30
2022-10-08T05:48:35.295Z,30.92
2022-10-08T05:51:16.737Z,22.80
2022-10-08T05:53:47.424Z,23.90
2022-10-08T05:56:16.903Z,24.15
2022-10-08T05:58:44.826Z,23.15
2022-10-08T06:01:16.236Z,28.33
2022-10-08T06:03:43.400Z,27.95
2022-10-08T06:06:12.147Z,25.55
2022-10-08T06:08:39.124Z,26.33
2022-10-08T06:11:06.579Z,26.65
2022-10-08T06:13:34.230Z,22.88
2022-10-08T06:16:09.241Z,28.30
2022-10-08T06:18:41.024Z,20.08
2022-10-08T06:21:13.429Z,22.00
2022-10-08T06:23:46.395Z,22.77
2022-10-08T06:26:13.633Z,23.92
2022-10-08T06:28:40.787Z,25.75
2022-10-08T06:31:08.819Z,30.90
2022-10-08T06:33:36.499Z,22.13
2022-10-08T06:36:13.384Z,28.60
2022-10-08T06:38:40.590Z,31.85
2022-10-08T06:41:07.965Z,28.00
2022-10-08T06:43:35.930Z,23.40
2022-10-08T06:46:07.317Z,22.67
2022-10-08T06:48:35.134Z,28.05
2022-10-08T06:51:08.399Z,22.77
2022-10-08T06:53:35.680Z,24.55
2022-10-08T06:56:04.949Z,26.52
2022-10-08T06:58:31.966Z,24.20
2022-10-08T07:01:07.815Z,24.15
2022-10-08T07:03:36.340Z,22.40
2022-10-08T07:06:05.917Z,20.77
2022-10-08T07:08:33.402Z,20.65
2022-10-08T07:11:15.285Z,22.13
2022-10-08T07:13:46.011Z,24.30
2022-10-08T07:16:22.267Z,23.92
2022-10-08T07:18:51.639Z,25.33
2022-10-08T07:21:21.142Z,24.83
2022-10-08T07:23:48.262Z,23.15
2022-10-08T07:26:21.156Z,20.98
2022-10-08T07:29:00.292Z,19.77
2022-10-08T07:31:32.782Z,24.55
2022-10-08T07:34:01.688Z,23.67
2022-10-08T07:36:29.831Z,23.10
2022-10-08T07:39:00.918Z,23.05
2022-10-08T07:41:29.397Z,20.08
2022-10-08T07:44:01.058Z,23.13
2022-10-08T07:46:29.562Z,20.90
2022-10-08T07:48:59.417Z,21.92
2022-10-08T07:51:27.593Z,23.03
2022-10-08T07:53:56.775Z,21.40
2022-10-08T07:56:27.532Z,19.52
2022-10-08T07:58:54.479Z,23.05
2022-10-08T08:01:23.315Z,20.75
2022-10-08T08:03:55.913Z,20.73
2022-10-08T08:06:24.653Z,20.08
2022-10-08T08:08:52.529Z,18.98
2022-10-08T08:11:22.190Z,18.45
2022-10-08T08:13:49.661Z,21.58
2022-10-08T08:16:22.367Z,20.75
2022-10-08T08:18:52.373Z,20.58
2022-10-08T08:21:24.925Z,19.20
2022-10-08T08:23:54.509Z,17.25
2022-10-08T08:26:33.198Z,16.42
2022-10-08T08:29:04.561Z,15.32
2022-10-08T08:31:35.385Z,16.95
2022-10-08T08:36:33.833Z,18.80
2022-10-08T08:39:01.969Z,21.20
2022-10-08T08:41:32.682Z,22.27
2022-10-08T08:46:30.391Z,14.77
2022-10-08T08:49:05.658Z,18.92
2022-10-08T08:51:32.856Z,16.58
2022-10-08T08:54:00.339Z,19.30
2022-10-08T08:56:28.351Z,16.63
2022-10-08T08:58:59.509Z,15.85
2022-10-08T09:01:43.347Z,16.70
2022-10-08T09:04:36.351Z,17.92
2022-10-08T09:07:08.374Z,17.63
2022-10-08T09:09:45.400Z,16.15
2022-10-08T09:12:41.914Z,18.65
2022-10-08T09:15:34.342Z,16.35
2022-10-08T09:18:04.607Z,14.25
2022-10-08T09:20:34.664Z,17.90
2022-10-08T09:23:18.656Z,14.50
2022-10-08T09:26:00.956Z,15.43
2022-10-08T09:28:39.927Z,17.23
2022-10-08T09:31:18.203Z,15.57
2022-10-08T09:33:53.228Z,15.50
2022-10-08T09:36:40.919Z,15.52
2022-10-08T09:39:23.884Z,13.43
2022-10-08T09:42:20.130Z,12.30
2022-10-08T09:44:50.546Z,13.25
2022-10-08T09:47:22.846Z,13.25
2022-10-08T09:50:05.390Z,12.57
2022-10-08T09:52:34.809Z,14.20
2022-10-08T09:55:09.274Z,11.70
2022-10-08T09:57:45.277Z,15.88
2022-10-08T10:00:26.134Z,22.73
2022-10-08T10:05:27.642Z,15.48
2022-10-08T10:07:54.888Z,10.88
2022-10-08T10:10:29.463Z,14.02
2022-10-08T10:13:03.026Z,13.65
2022-10-08T10:15:40.262Z,12.23
2022-10-08T10:18:17.635Z,13.00
2022-10-08T10:20:51.646Z,15.57
2022-10-08T10:23:39.557Z,12.25
2022-10-08T10:26:15.150Z,15.63
2022-10-08T10:29:01.301Z,11.82
2022-10-08T10:31:34.843Z,13.00
2022-10-08T10:34:14.903Z,15.10
2022-10-08T10:37:11.951Z,11.30
2022-10-08T10:39:46.567Z,14.38
2022-10-08T10:42:49.552Z,11.95
2022-10-08T10:45:28.258Z,16.42
2022-10-08T10:47:56.721Z,15.48
2022-10-08T10:50:44.416Z,13.32
2022-10-08T10:53:22.564Z,12.93
2022-10-08T10:56:05.462Z,14.27
2022-10-08T10:58:32.361Z,14.40
2022-10-08T11:01:26.731Z,14.98
2022-10-08T11:04:31.091Z,12.38
2022-10-08T11:07:16.798Z,14.43
2022-10-08T11:09:49.631Z,14.23
2022-10-08T11:12:46.082Z,13.80
2022-10-08T11:15:33.093Z,13.15
2022-10-08T11:18:12.734Z,12.82
2022-10-08T11:20:40.125Z,13.68
2022-10-08T11:23:17.799Z,12.07
2022-10-08T11:26:21.417Z,14.20
2022-10-08T11:29:07.142Z,13.68
2022-10-08T11:31:41.708Z,13.88
2022-10-08T11:34:29.813Z,16.17
2022-10-08T11:37:14.758Z,16.33
2022-10-08T11:40:06.080Z,15.52
2022-10-08T11:42:49.365Z,14.70
2022-10-08T11:45:26.213Z,13.32
2022-10-08T11:47:55.081Z,15.65
2022-10-08T11:50:28.184Z,13.55
2022-10-08T11:53:14.989Z,19.17
2022-10-08T11:55:53.818Z,13.80
2022-10-08T11:58:28.857Z,14.45
2022-10-08T12:01:10.324Z,12.32
2022-10-08T12:03:40.570Z,14.52
2022-10-08T12:06:24.209Z,14.07
2022-10-08T12:09:05.838Z,13.27
2022-10-08T12:11:32.833Z,13.70
2022-10-08T12:14:11.659Z,16.35
2022-10-08T12:16:47.970Z,13.20
2022-10-08T12:19:35.578Z,14.63
2022-10-08T12:22:14.899Z,13.85
2022-10-08T12:24:45.967Z,13.80
2022-10-08T12:27:18.969Z,15.90
2022-10-08T12:30:15.375Z,14.00
2022-10-08T12:32:42.293Z,15.20
2022-10-08T12:35:33.795Z,14.27
2022-10-08T12:38:15.830Z,14.65
2022-10-08T12:41:13.338Z,17.58
2022-10-08T12:43:52.374Z,16.23
2022-10-08T12:46:28.414Z,15.10
2022-10-08T12:49:12.229Z,15.30
2022-10-08T12:51:54.237Z,17.05
2022-10-08T12:54:26.923Z,16.08
2022-10-08T12:56:54.140Z,14.35
2022-10-08T12:59:24.697Z,15.43
2022-10-08T13:01:54.209Z,15.93
2022-10-08T13:04:24.338Z,18.02
2022-10-08T13:06:53.710Z,15.40
2022-10-08T13:09:31.988Z,16.23
2022-10-08T13:12:03.945Z,15.63
2022-10-08T13:14:36.981Z,18.50
2022-10-08T13:17:05.340Z,17.77
2022-10-08T13:19:37.357Z,16.80
2022-10-08T13:22:08.332Z,16.45
2022-10-08T13:24:43.498Z,22.27
2022-10-08T13:27:42.674Z,16.27
2022-10-08T13:30:30.289Z,17.40
2022-10-08T13:33:16.015Z,15.88
2022-10-08T13:35:43.761Z,15.20
2022-10-08T13:38:20.533Z,15.27
2022-10-08T13:40:52.738Z,15.45
2022-10-08T13:43:20.348Z,15.40
2022-10-08T13:45:47.553Z,18.38
2022-10-08T13:48:15.366Z,15.85
2022-10-08T13:50:47.301Z,15.23
2022-10-08T13:53:15.663Z,14.30
2022-10-08T13:55:44.895Z,17.30
2022-10-08T13:58:14.374Z,15.80
2022-10-08T14:00:42.810Z,15.73
2022-10-08T14:03:10.827Z,14.88
2022-10-08T14:05:41.555Z,15.20
2022-10-08T14:10:44.498Z,16.65
2022-10-08T14:13:16.098Z,14.25
2022-10-08T14:15:44.141Z,13.85
2022-10-08T14:18:11.337Z,15.75
2022-10-08T14:20:38.574Z,17.10
2022-10-08T14:23:05.655Z,17.45
2022-10-08T14:25:32.826Z,16.58
2022-10-08T14:28:01.070Z,15.45
2022-10-08T14:30:28.675Z,15.88
2022-10-08T14:32:56.294Z,16.58
2022-10-08T14:35:24.064Z,17.75
2022-10-08T14:37:51.311Z,15.30
2022-10-08T14:40:21.603Z,14.45
2022-10-08T14:42:49.050Z,15.50
2022-10-08T14:45:16.387Z,16.00
2022-10-08T14:47:43.391Z,18.58
2022-10-08T14:50:10.639Z,15.57
2022-10-08T14:52:41.856Z,17.38
2022-10-08T14:55:11.712Z,15.95
2022-10-08T14:57:38.739Z,15.27
2022-10-08T15:00:06.587Z,18.17
2022-10-08T15:02:34.725Z,15.60
2022-10-08T15:05:02.294Z,15.82
2022-10-08T15:07:32.219Z,14.48
2022-10-08T15:09:59.204Z,13.97
2022-10-08T15:12:26.257Z,15.18
2022-10-08T15:14:53.264Z,15.30
2022-10-08T15:17:20.192Z,14.18
2022-10-08T15:19:47.405Z,14.73
2022-10-08T15:22:14.323Z,20.40
2022-10-08T15:24:41.741Z,21.15
2022-10-08T15:27:08.625Z,18.40
2022-10-08T15:29:36.590Z,18.52
2022-10-08T15:32:03.702Z,19.15
2022-10-08T15:34:30.755Z,18.30
2022-10-08T15:36:57.707Z,21.45
2022-10-08T15:39:24.814Z,22.10
2022-10-08T15:41:53.533Z,24.05
2022-10-08T15:44:29.380Z,25.02
2022-10-08T15:47:07.679Z,27.63
2022-10-08T15:49:37.589Z,22.92
2022-10-08T15:52:06.910Z,21.23
2022-10-08T15:54:38.194Z,21.33
2022-10-08T15:57:05.899Z,20.30
2022-10-08T15:59:33.652Z,18.42
2022-10-08T16:02:00.686Z,28.00
2022-10-08T16:04:27.742Z,22.48
2022-10-08T16:06:57.913Z,23.42
2022-10-08T16:09:25.071Z,25.17
2022-10-08T16:11:52.568Z,24.35
2022-10-08T16:14:22.491Z,29.52
2022-10-08T16:16:51.287Z,27.23
2022-10-08T16:19:25.056Z,23.75
2022-10-08T16:21:54.662Z,23.65
2022-10-08T16:24:22.204Z,26.17
2022-10-08T16:26:49.302Z,27.17
2022-10-08T16:29:18.443Z,32.08
2022-10-08T16:31:46.636Z,26.52
2022-10-08T16:34:16.947Z,39.92
2022-10-08T16:36:44.490Z,35.05
2022-10-08T16:39:13.845Z,26.52
2022-10-08T16:41:41.104Z,24.58
2022-10-08T16:44:13.753Z,21.90
2022-10-08T16:46:44.070Z,23.35
2022-10-08T16:49:27.430Z,29.55
2022-10-08T16:51:56.858Z,24.73
2022-10-08T16:54:24.282Z,23.02
2022-10-08T16:56:51.527Z,21.63
2022-10-08T16:59:23.883Z,22.33
2022-10-08T17:01:53.248Z,21.33
2022-10-08T17:04:22.268Z,22.30
2022-10-08T17:06:49.226Z,27.70
2022-10-08T17:09:16.475Z,24.52
2022-10-08T17:11:43.685Z,22.60
2022-10-08T17:14:12.053Z,25.40
2022-10-08T17:16:40.548Z,25.98
2022-10-08T17:19:07.552Z,22.48
2022-10-08T17:21:35.305Z,25.58
2022-10-08T17:24:03.185Z,25.25
2022-10-08T17:26:31.199Z,37.15
2022-10-08T17:29:03.982Z,27.15
2022-10-08T17:31:32.127Z,24.25
2022-10-08T17:34:00.184Z,39.15
2022-10-08T17:36:33.211Z,29.95
2022-10-08T17:39:01.893Z,23.35
2022-10-08T17:41:34.705Z,19.27
2022-10-08T17:44:04.413Z,27.90
2022-10-08T17:46:41.990Z,24.75
2022-10-08T17:49:09.175Z,27.23
2022-10-08T17:51:36.105Z,31.25
2022-10-08T17:54:10.627Z,32.05
2022-10-08T17:56:37.598Z,34.22
2022-10-08T17:59:05.056Z,34.70
2022-10-08T18:01:35.009Z,40.53
2022-10-08T18:04:06.941Z,36.90
2022-10-08T18:06:36.165Z,42.42
2022-10-08T18:09:06.399Z,35.50
2022-10-08T18:11:35.818Z,37.38
2022-10-08T18:14:04.175Z,35.28
2022-10-08T18:16:31.322Z,36.90
2022-10-08T18:18:58.385Z,34.60
2022-10-08T18:21:25.625Z,39.83
2022-10-08T18:23:52.837Z,42.17
2022-10-08T18:26:24.100Z,40.72
2022-10-08T18:28:53.574Z,36.20
2022-10-08T18:31:22.263Z,37.97
2022-10-08T18:33:50.936Z,34.67
2022-10-08T18:36:22.942Z,33.55
2022-10-08T18:38:56.436Z,44.83
2022-10-08T18:41:26.843Z,49.03
2022-10-08T18:43:53.981Z,45.38
2022-10-08T18:46:22.536Z,44.10
2022-10-08T18:48:50.073Z,40.20
2022-10-08T18:51:22.734Z,43.70
2022-10-08T18:53:50.903Z,46.13
2022-10-08T18:56:32.213Z,39.00
2022-10-08T18:59:04.513Z,45.13
2022-10-08T19:01:37.409Z,40.15
2022-10-08T19:04:07.693Z,35.70
2022-10-08T19:06:39.374Z,39.13
2022-10-08T19:09:07.406Z,39.13
2022-10-08T19:11:41.885Z,44.92
2022-10-08T19:14:13.808Z,37.45
2022-10-08T19:16:41.720Z,43.50
2022-10-08T19:19:13.407Z,42.72
2022-10-08T19:21:40.375Z,44.75
2022-10-08T19:24:11.215Z,53.97
2022-10-08T19:29:05.048Z,48.40
2022-10-08T19:31:36.323Z,49.67
2022-10-08T19:34:05.544Z,44.15
2022-10-08T19:36:36.762Z,47.55
2022-10-08T19:39:07.619Z,45.33
2022-10-08T19:41:34.582Z,47.17
2022-10-08T19:44:01.535Z,45.78
2022-10-08T19:46:29.477Z,36.92
2022-10-08T19:48:59.107Z,43.03
2022-10-08T19:51:27.468Z,36.15
2022-10-08T19:53:55.419Z,36.22
2022-10-08T19:56:22.505Z,38.95
2022-10-08T19:58:53.476Z,39.67
2022-10-08T20:01:23.783Z,45.97
2022-10-08T20:03:56.185Z,44.00
2022-10-08T20:06:25.840Z,49.70
2022-10-08T20:08:54.958Z,38.75
2022-10-08T20:11:22.798Z,52.78
2022-10-08T20:13:51.565Z,43.97
2022-10-08T20:16:30.649Z,56.13
2022-10-08T20:19:02.944Z,52.00
2022-10-08T20:21:31.924Z,47.25
2022-10-08T20:23:59.536Z,50.35
2022-10-08T20:26:31.846Z,51.63
2022-10-08T20:29:00.955Z,36.67
2022-10-08T20:31:31.103Z,43.75
2022-10-08T20:34:00.634Z,38.63
2022-10-08T20:36:29.318Z,38.58
2022-10-08T20:38:57.216Z,45.33
2022-10-08T20:41:30.370Z,45.83
2022-10-08T20:44:00.647Z,42.53
2022-10-08T20:46:27.923Z,39.30
2022-10-08T20:48:55.191Z,46.92
2022-10-08T20:51:24.133Z,43.80
2022-10-08T20:53:53.695Z,40.08
2022-10-08T20:56:22.261Z,46.38
2022-10-08T20:58:49.975Z,42.67
2022-10-08T21:01:23.745Z,41.20
2022-10-08T21:03:51.491Z,37.78
2022-10-08T21:06:23.274Z,34.88
2022-10-08T21:08:51.750Z,33.92
2022-10-08T21:11:21.306Z,35.35
2022-10-08T21:13:48.974Z,30.67
2022-10-08T21:16:18.202Z,32.17
2022-10-08T21:18:49.227Z,31.80
2022-10-08T21:21:16.993Z,32.42
2022-10-08T21:23:44.425Z,30.20
2022-10-08T21:26:17.249Z,25.17
2022-10-08T21:28:46.470Z,27.05
2022-10-08T21:31:14.799Z,26.55
2022-10-08T21:33:47.240Z,32.80
2022-10-08T21:36:17.296Z,25.98
2022-10-08T21:38:44.217Z,26.55
2022-10-08T21:41:13.626Z,27.33
2022-10-08T21:43:45.464Z,25.25
2022-10-08T21:46:15.054Z,24.55
2022-10-08T21:48:42.354Z,27.40
2022-10-08T21:51:12.670Z,25.98
2022-10-08T21:53:44.384Z,26.50
2022-10-08T21:56:15.047Z,48.42
2022-10-08T21:58:44.834Z,45.47
2022-10-08T22:01:59.418Z,46.83
2022-10-08T22:04:26.633Z,27.45
2022-10-08T22:06:58.852Z,29.05
2022-10-08T22:09:28.245Z,28.98
2022-10-08T22:11:56.468Z,23.40
2022-10-08T22:14:24.286Z,30.05
2022-10-08T22:16:51.690Z,27.33
2022-10-08T22:19:18.892Z,30.38
2022-10-08T22:21:46.589Z,25.83
2022-10-08T22:24:13.963Z,21.40
2022-10-08T22:26:44.519Z,27.42
2022-10-08T22:29:12.030Z,27.45
2022-10-08T22:31:39.623Z,25.92
2022-10-08T22:34:06.618Z,26.60
2022-10-08T22:36:36.845Z,30.60
2022-10-08T22:39:04.306Z,29.10
2022-10-08T22:41:32.512Z,27.42
2022-10-08T22:44:00.416Z,29.77
2022-10-08T22:46:30.354Z,27.58
2022-10-08T22:49:03.656Z,28.43
2022-10-08T22:51:31.032Z,28.85
2022-10-08T22:53:59.597Z,25.77
2022-10-08T22:56:29.721Z,26.15
2022-10-08T22:58:58.710Z,29.00
2022-10-08T23:01:27.162Z,27.25
2022-10-08T23:03:54.816Z,24.83
2022-10-08T23:06:24.682Z,25.95
2022-10-08T23:09:02.830Z,27.10
2022-10-08T23:11:32.029Z,25.60
2022-10-08T23:14:00.039Z,25.80
2022-10-08T23:16:28.200Z,26.83
2022-10-08T23:19:01.713Z,28.27
2022-10-08T23:21:29.482Z,26.08
2022-10-08T23:23:57.431Z,30.52
2022-10-08T23:26:25.752Z,29.00
2022-10-08T23:28:54.967Z,29.42
2022-10-08T23:31:25.175Z,24.52
2022-10-08T23:33:53.756Z,26.08
2022-10-08T23:36:26.515Z,26.98
2022-10-08T23:38:53.571Z,26.48
2022-10-08T23:41:20.779Z,27.10
2022-10-08T23:43:49.951Z,27.48
2022-10-08T23:46:19.797Z,27.33
2022-10-08T23:48:46.989Z,22.90
2022-10-08T23:51:15.075Z,20.75
2022-10-08T23:53:43.427Z,26.50
2022-10-08T23:56:11.548Z,27.98
2022-10-08T23:58:38.985Z,28.35
